createdAt,value
2017-05-20T00:01:52.200Z,81.30
2017-05-20T00:04:20.481Z,81.40
2017-05-20T00:06:48.731Z,81.20
2017-05-20T00:09:16.973Z,81.20
2017-05-20T00:11:45.268Z,81.40
2017-05-20T00:14:13.529Z,81.50
2017-05-20T00:16:41.771Z,81.60
2017-05-20T00:19:10.025Z,82.10
2017-05-20T00:21:38.289Z,82.00
2017-05-20T00:24:06.554Z,83.20
2017-05-20T00:26:34.835Z,83.40
2017-05-20T00:29:03.081Z,83.10
2017-05-20T00:31:31.349Z,83.10
2017-05-20T00:33:59.598Z,83.00
2017-05-20T00:36:27.866Z,82.90
2017-05-20T00:38:56.109Z,83.00
2017-05-20T00:41:24.382Z,82.90
2017-05-20T00:43:52.639Z,82.90
2017-05-20T00:46:20.910Z,83.10
2017-05-20T00:48:49.149Z,83.40
2017-05-20T00:51:17.452Z,83.30
2017-05-20T00:53:45.716Z,83.40
2017-05-20T00:56:13.978Z,83.60
2017-05-20T00:58:42.222Z,83.70
2017-05-20T01:01:10.474Z,83.50
2017-05-20T01:03:38.725Z,83.50
2017-05-20T01:06:06.970Z,83.60
2017-05-20T01:08:35.214Z,83.50
2017-05-20T01:11:03.477Z,83.70
2017-05-20T01:13:31.776Z,83.90
2017-05-20T01:16:00.011Z,83.50
2017-05-20T01:18:28.254Z,83.60
2017-05-20T01:20:56.521Z,83.40
2017-05-20T01:23:24.790Z,83.40
2017-05-20T01:25:53.041Z,83.60
2017-05-20T01:28:21.282Z,83.50
2017-05-20T01:30:49.587Z,83.20
2017-05-20T01:33:17.834Z,83.20
2017-05-20T01:35:46.097Z,82.90
2017-05-20T01:38:14.347Z,82.60
2017-05-20T01:40:42.618Z,82.60
2017-05-20T01:43:10.885Z,82.70
2017-05-20T01:45:39.153Z,82.80
2017-05-20T01:48:07.389Z,82.90
2017-05-20T01:50:35.636Z,82.70
2017-05-20T01:53:03.898Z,82.90
2017-05-20T01:55:32.142Z,82.70
2017-05-20T01:58:00.407Z,82.70
2017-05-20T02:00:28.652Z,82.80
2017-05-20T02:02:56.909Z,82.80
2017-05-20T02:05:25.149Z,82.90
2017-05-20T02:07:53.417Z,82.60
2017-05-20T02:10:21.692Z,82.30
2017-05-20T02:12:49.951Z,82.30
2017-05-20T02:15:18.216Z,82.50
2017-05-20T02:17:46.476Z,82.40
2017-05-20T02:20:14.722Z,82.70
2017-05-20T02:22:42.982Z,82.90
2017-05-20T02:25:11.236Z,82.60
2017-05-20T02:27:39.501Z,82.40
2017-05-20T02:30:07.750Z,82.10
2017-05-20T02:32:36.029Z,81.80
2017-05-20T02:35:04.277Z,81.80
2017-05-20T02:37:32.520Z,82.30
2017-05-20T02:40:00.782Z,81.60
2017-05-20T02:42:29.035Z,81.60
2017-05-20T02:44:57.312Z,81.90
2017-05-20T02:47:25.553Z,81.50
2017-05-20T02:49:53.810Z,81.30
2017-05-20T02:52:22.053Z,81.70
2017-05-20T02:54:50.293Z,82.10
2017-05-20T02:57:18.546Z,82.90
2017-05-20T02:59:46.795Z,82.10
2017-05-20T03:02:15.046Z,82.20
2017-05-20T03:04:43.290Z,82.30
2017-05-20T03:07:11.549Z,82.10
2017-05-20T03:09:39.814Z,82.30
2017-05-20T03:12:08.078Z,81.80
2017-05-20T03:14:36.321Z,81.80
2017-05-20T03:17:04.562Z,81.70
2017-05-20T03:19:32.830Z,82.00
2017-05-20T03:22:01.091Z,82.30
2017-05-20T03:24:29.347Z,82.20
2017-05-20T03:26:57.592Z,82.20
2017-05-20T03:29:25.841Z,82.10
2017-05-20T03:31:54.101Z,82.10
2017-05-20T03:34:22.352Z,81.90
2017-05-20T03:36:50.617Z,82.10
2017-05-20T03:39:18.865Z,81.50
2017-05-20T03:41:47.139Z,81.20
2017-05-20T03:44:15.406Z,81.40
2017-05-20T03:46:43.744Z,81.50
2017-05-20T03:49:12.008Z,81.40
2017-05-20T03:51:40.240Z,81.40
2017-05-20T03:54:08.521Z,82.10
2017-05-20T03:56:36.769Z,82.70
2017-05-20T03:59:05.040Z,83.10
2017-05-20T04:01:33.300Z,83.30
2017-05-20T04:04:01.564Z,82.60
2017-05-20T04:06:29.802Z,82.00
2017-05-20T04:08:58.073Z,81.90
2017-05-20T04:11:26.317Z,82.00
2017-05-20T04:13:54.582Z,82.00
2017-05-20T04:16:22.845Z,81.70
2017-05-20T04:18:51.091Z,81.30
2017-05-20T04:21:19.347Z,81.40
2017-05-20T04:23:47.603Z,81.00
2017-05-20T04:26:15.841Z,80.70
2017-05-20T04:28:44.097Z,80.70
2017-05-20T04:31:12.363Z,80.90
2017-05-20T04:33:40.630Z,81.20
2017-05-20T04:36:08.902Z,80.70
2017-05-20T04:38:37.168Z,80.40
2017-05-20T04:41:05.397Z,80.10
2017-05-20T04:43:33.662Z,80.00
2017-05-20T04:46:01.918Z,80.30
2017-05-20T04:48:30.171Z,79.90
2017-05-20T04:50:58.437Z,80.20
2017-05-20T04:53:26.683Z,79.90
2017-05-20T04:55:54.932Z,79.80
2017-05-20T04:58:23.194Z,79.60
2017-05-20T05:00:51.450Z,79.40
2017-05-20T05:03:19.709Z,79.20
2017-05-20T05:05:47.977Z,79.10
2017-05-20T05:08:16.229Z,79.20
2017-05-20T05:10:44.465Z,78.80
2017-05-20T05:13:12.738Z,78.00
2017-05-20T05:15:40.983Z,78.20
2017-05-20T05:18:09.246Z,78.10
2017-05-20T05:20:37.494Z,78.30
2017-05-20T05:23:05.742Z,77.80
2017-05-20T05:25:34.006Z,77.30
2017-05-20T05:28:02.257Z,76.80
2017-05-20T05:30:30.519Z,76.90
2017-05-20T05:32:58.769Z,76.90
2017-05-20T05:35:27.041Z,76.10
2017-05-20T05:37:55.305Z,76.40
2017-05-20T05:40:23.550Z,76.20
2017-05-20T05:42:51.813Z,76.30
2017-05-20T05:45:20.118Z,76.20
2017-05-20T05:47:48.374Z,77.70
2017-05-20T05:50:16.682Z,75.70
2017-05-20T05:52:44.937Z,75.80
2017-05-20T05:55:13.201Z,75.50
2017-05-20T05:57:41.446Z,75.80
2017-05-20T06:00:09.700Z,75.60
2017-05-20T06:02:37.956Z,73.90
2017-05-20T06:05:06.204Z,74.70
2017-05-20T06:07:34.472Z,75.30
2017-05-20T06:10:02.715Z,74.70
2017-05-20T06:12:30.977Z,74.10
2017-05-20T06:14:59.238Z,74.20
2017-05-20T06:17:27.497Z,71.60
2017-05-20T06:19:55.762Z,72.20
2017-05-20T06:22:24.001Z,70.60
2017-05-20T06:24:52.277Z,70.40
2017-05-20T06:27:20.547Z,70.70
2017-05-20T06:29:48.786Z,70.30
2017-05-20T06:32:17.057Z,70.30
2017-05-20T06:34:45.332Z,69.50
2017-05-20T06:37:13.588Z,69.10
2017-05-20T06:39:41.853Z,67.60
2017-05-20T06:42:10.102Z,67.10
2017-05-20T06:44:38.367Z,66.30
2017-05-20T06:47:06.619Z,64.50
2017-05-20T06:49:34.887Z,60.80
2017-05-20T06:52:03.164Z,58.70
2017-05-20T06:54:31.432Z,59.90
2017-05-20T06:56:59.689Z,55.80
2017-05-20T06:59:27.956Z,57.00
2017-05-20T07:01:56.228Z,53.50
2017-05-20T07:04:24.497Z,53.00
2017-05-20T07:06:54.199Z,53.90
2017-05-20T07:09:22.487Z,55.90
2017-05-20T07:11:50.762Z,53.30
2017-05-20T07:14:19.015Z,51.20
2017-05-20T07:16:47.276Z,50.20
2017-05-20T07:19:15.552Z,51.40
2017-05-20T07:21:43.822Z,51.30
2017-05-20T07:24:12.098Z,50.90
2017-05-20T07:26:40.368Z,48.20
2017-05-20T07:29:08.628Z,45.70
2017-05-20T07:31:36.903Z,44.10
2017-05-20T07:34:05.159Z,44.70
2017-05-20T07:36:33.438Z,44.00
2017-05-20T07:39:01.689Z,44.50
2017-05-20T07:41:29.976Z,45.20
2017-05-20T07:43:58.226Z,44.00
2017-05-20T07:46:26.515Z,43.10
2017-05-20T07:48:54.795Z,42.60
2017-05-20T07:51:23.035Z,44.50
2017-05-20T07:53:51.312Z,45.60
2017-05-20T07:56:19.586Z,46.60
2017-05-20T07:58:47.840Z,43.10
2017-05-20T08:01:16.147Z,41.80
2017-05-20T08:03:44.400Z,42.80
2017-05-20T08:06:12.661Z,41.90
2017-05-20T08:08:40.925Z,42.30
2017-05-20T08:11:09.168Z,41.60
2017-05-20T08:13:37.411Z,42.50
2017-05-20T08:16:05.669Z,42.00
2017-05-20T08:18:33.945Z,39.70
2017-05-20T08:21:02.206Z,38.30
2017-05-20T08:23:30.467Z,35.90
2017-05-20T08:25:58.757Z,37.90
2017-05-20T08:28:27.029Z,35.40
2017-05-20T08:30:55.279Z,35.90
2017-05-20T08:33:23.527Z,34.70
2017-05-20T08:35:51.785Z,35.70
2017-05-20T08:38:20.038Z,38.20
2017-05-20T08:40:48.309Z,39.00
2017-05-20T08:43:16.545Z,36.70
2017-05-20T08:45:44.809Z,38.70
2017-05-20T08:48:13.062Z,38.30
2017-05-20T08:50:41.319Z,34.70
2017-05-20T08:53:09.585Z,34.30
2017-05-20T08:55:37.861Z,35.70
2017-05-20T08:58:06.104Z,38.10
2017-05-20T09:00:34.344Z,35.40
2017-05-20T09:03:02.621Z,35.50
2017-05-20T09:05:30.872Z,31.30
2017-05-20T09:07:59.123Z,31.90
2017-05-20T09:10:27.384Z,32.50
2017-05-20T09:12:55.657Z,31.30
2017-05-20T09:15:23.907Z,29.20
2017-05-20T09:17:52.176Z,31.70
2017-05-20T09:20:20.424Z,37.40
2017-05-20T09:22:48.669Z,41.50
2017-05-20T09:25:16.940Z,42.90
2017-05-20T09:27:45.188Z,40.90
2017-05-20T09:30:13.460Z,41.70
2017-05-20T09:32:41.706Z,43.50
2017-05-20T09:35:09.943Z,44.20
2017-05-20T09:37:38.217Z,43.40
2017-05-20T09:40:06.465Z,44.10
2017-05-20T09:42:34.733Z,42.70
2017-05-20T09:45:02.977Z,42.90
2017-05-20T09:47:31.258Z,43.50
2017-05-20T09:49:59.513Z,42.60
2017-05-20T09:52:27.781Z,44.80
2017-05-20T09:54:56.020Z,41.70
2017-05-20T09:57:24.283Z,41.00
2017-05-20T09:59:52.557Z,39.90
2017-05-20T10:02:20.809Z,41.10
2017-05-20T10:04:49.058Z,39.30
2017-05-20T10:07:17.350Z,40.20
2017-05-20T10:09:45.601Z,40.70
2017-05-20T10:12:15.580Z,39.70
2017-05-20T10:14:43.849Z,39.00
2017-05-20T10:17:12.121Z,37.80
2017-05-20T10:19:40.389Z,34.90
2017-05-20T10:22:08.665Z,34.30
2017-05-20T10:24:36.906Z,36.60
2017-05-20T10:27:05.170Z,34.90
2017-05-20T10:29:33.457Z,37.10
2017-05-20T10:32:01.692Z,36.30
2017-05-20T10:34:29.960Z,32.70
2017-05-20T10:36:58.230Z,31.10
2017-05-20T10:39:26.484Z,28.20
2017-05-20T10:41:54.737Z,26.90
2017-05-20T10:44:22.992Z,26.90
2017-05-20T10:46:51.267Z,27.80
2017-05-20T10:49:19.529Z,28.60
2017-05-20T10:51:47.777Z,28.70
2017-05-20T10:54:16.039Z,28.30
2017-05-20T10:56:44.377Z,26.60
2017-05-20T10:59:12.613Z,28.30
2017-05-20T11:01:40.888Z,29.10
2017-05-20T11:04:09.130Z,30.20
2017-05-20T11:06:37.389Z,31.20
2017-05-20T11:09:05.656Z,32.20
2017-05-20T11:11:33.909Z,32.50
2017-05-20T11:14:02.162Z,34.70
2017-05-20T11:16:30.430Z,35.10
2017-05-20T11:18:58.701Z,36.80
2017-05-20T11:21:26.944Z,38.10
2017-05-20T11:24:07.909Z,37.70
2017-05-20T11:26:36.184Z,38.20
2017-05-20T11:29:04.425Z,36.60
2017-05-20T11:31:32.721Z,39.30
2017-05-20T11:34:00.965Z,37.70
2017-05-20T11:36:29.204Z,38.80
2017-05-20T11:38:57.468Z,41.20
2017-05-20T11:41:25.716Z,40.30
2017-05-20T11:43:53.985Z,36.40
2017-05-20T11:46:22.233Z,37.80
2017-05-20T11:48:50.479Z,39.20
2017-05-20T11:51:18.753Z,39.70
2017-05-20T11:53:46.997Z,39.10
2017-05-20T11:56:15.284Z,38.50
2017-05-20T11:58:43.529Z,37.90
2017-05-20T12:01:11.781Z,37.90
2017-05-20T12:03:40.056Z,38.80
2017-05-20T12:06:08.314Z,37.70
2017-05-20T12:08:36.576Z,39.50
2017-05-20T12:11:04.820Z,39.00
2017-05-20T12:13:33.088Z,39.30
2017-05-20T12:16:01.336Z,39.30
2017-05-20T12:18:29.602Z,38.10
2017-05-20T12:20:57.876Z,38.00
2017-05-20T12:23:26.148Z,39.90
2017-05-20T12:25:54.414Z,39.50
2017-05-20T12:28:22.687Z,39.90
2017-05-20T12:30:50.937Z,39.40
2017-05-20T12:33:19.181Z,37.00
2017-05-20T12:35:47.456Z,36.30
2017-05-20T12:38:15.708Z,37.90
2017-05-20T12:40:43.966Z,36.70
2017-05-20T12:43:12.235Z,37.90
2017-05-20T12:45:40.509Z,37.20
2017-05-20T12:48:08.761Z,37.20
2017-05-20T12:50:37.016Z,36.90
2017-05-20T12:53:05.277Z,35.70
2017-05-20T12:55:33.528Z,37.00
2017-05-20T12:58:01.801Z,37.70
2017-05-20T13:00:30.048Z,37.10
2017-05-20T13:02:59.591Z,36.50
2017-05-20T13:05:27.869Z,37.10
2017-05-20T13:07:56.136Z,38.00
2017-05-20T13:10:24.417Z,38.20
2017-05-20T13:12:52.672Z,37.00
2017-05-20T13:15:20.937Z,37.70
2017-05-20T13:17:49.183Z,38.10
2017-05-20T13:20:17.448Z,37.50
2017-05-20T13:22:45.704Z,37.50
2017-05-20T13:25:13.981Z,39.20
2017-05-20T13:27:42.241Z,39.20
2017-05-20T13:30:10.589Z,39.90
2017-05-20T13:32:38.861Z,39.20
2017-05-20T13:35:07.140Z,39.80
2017-05-20T13:37:35.405Z,39.60
2017-05-20T13:40:03.682Z,40.10
2017-05-20T13:42:31.931Z,40.60
2017-05-20T13:45:00.202Z,39.70
2017-05-20T13:47:28.463Z,40.50
2017-05-20T13:49:56.722Z,40.00
2017-05-20T13:52:24.991Z,39.70
2017-05-20T13:54:53.281Z,42.60
2017-05-20T13:57:21.567Z,40.50
2017-05-20T13:59:49.824Z,41.80
2017-05-20T14:02:18.064Z,40.60
2017-05-20T14:04:46.357Z,40.10
2017-05-20T14:07:14.620Z,41.60
2017-05-20T14:09:42.889Z,41.30
2017-05-20T14:12:11.218Z,40.00
2017-05-20T14:14:39.472Z,40.80
2017-05-20T14:17:07.735Z,40.20
2017-05-20T14:19:35.993Z,39.90
2017-05-20T14:22:04.266Z,40.40
2017-05-20T14:24:32.547Z,40.50
2017-05-20T14:27:00.798Z,40.50
2017-05-20T14:29:29.065Z,41.60
2017-05-20T14:31:57.313Z,40.10
2017-05-20T14:34:25.585Z,40.60
2017-05-20T14:36:53.834Z,40.80
2017-05-20T14:39:22.076Z,41.00
2017-05-20T14:41:50.342Z,40.40
2017-05-20T14:44:18.612Z,40.50
2017-05-20T14:46:46.860Z,40.70
2017-05-20T14:49:15.118Z,39.00
2017-05-20T14:51:43.381Z,39.50
2017-05-20T14:54:11.665Z,38.40
2017-05-20T14:56:39.932Z,39.30
2017-05-20T14:59:08.207Z,37.70
2017-05-20T15:01:36.465Z,38.70
2017-05-20T15:04:04.720Z,38.00
2017-05-20T15:06:32.988Z,37.50
2017-05-20T15:09:01.246Z,38.00
2017-05-20T15:11:29.533Z,40.60
2017-05-20T15:13:57.784Z,37.50
2017-05-20T15:16:26.060Z,38.20
2017-05-20T15:18:54.324Z,41.00
2017-05-20T15:21:22.574Z,39.90
2017-05-20T15:23:50.841Z,40.00
2017-05-20T15:26:19.104Z,39.70
2017-05-20T15:28:47.361Z,39.30
2017-05-20T15:31:15.644Z,40.90
2017-05-20T15:33:43.915Z,42.50
2017-05-20T15:36:12.163Z,43.10
2017-05-20T15:38:40.446Z,44.20
2017-05-20T15:41:08.694Z,45.60
2017-05-20T15:43:36.941Z,45.60
2017-05-20T15:46:05.217Z,46.20
2017-05-20T15:48:33.463Z,46.20
2017-05-20T15:51:01.740Z,46.20
2017-05-20T15:53:29.989Z,46.10
2017-05-20T15:55:58.228Z,46.40
2017-05-20T15:58:26.492Z,46.70
2017-05-20T16:00:54.745Z,47.70
2017-05-20T16:03:23.029Z,47.60
2017-05-20T16:05:51.278Z,47.20
2017-05-20T16:08:19.537Z,47.20
2017-05-20T16:10:47.798Z,47.20
2017-05-20T16:13:16.062Z,48.20
2017-05-20T16:15:44.309Z,48.10
2017-05-20T16:18:12.576Z,47.50
2017-05-20T16:20:40.824Z,47.40
2017-05-20T16:23:09.142Z,47.40
2017-05-20T16:25:37.388Z,47.70
2017-05-20T16:28:05.661Z,47.80
2017-05-20T16:30:33.914Z,47.30
2017-05-20T16:33:02.160Z,47.20
2017-05-20T16:35:30.428Z,48.20
2017-05-20T16:37:58.674Z,46.50
2017-05-20T16:40:26.953Z,45.60
2017-05-20T16:42:55.227Z,45.50
2017-05-20T16:45:23.481Z,45.60
2017-05-20T16:47:51.754Z,45.90
2017-05-20T16:50:20.002Z,45.70
2017-05-20T16:52:48.259Z,45.20
2017-05-20T16:55:16.522Z,45.40
2017-05-20T16:57:44.806Z,46.20
2017-05-20T17:00:13.086Z,45.90
2017-05-20T17:02:41.328Z,46.00
2017-05-20T17:05:09.600Z,46.20
2017-05-20T17:07:37.852Z,46.70
2017-05-20T17:10:06.092Z,46.50
2017-05-20T17:12:34.360Z,46.90
2017-05-20T17:15:02.606Z,47.50
2017-05-20T17:17:30.849Z,49.10
2017-05-20T17:19:59.120Z,48.20
2017-05-20T17:22:27.369Z,47.50
2017-05-20T17:24:55.659Z,48.00
2017-05-20T17:27:23.895Z,48.80
2017-05-20T17:29:52.186Z,48.50
2017-05-20T17:32:20.447Z,48.90
2017-05-20T17:34:48.717Z,48.60
2017-05-20T17:37:16.967Z,48.00
2017-05-20T17:39:45.216Z,48.50
2017-05-20T17:42:13.484Z,49.40
2017-05-20T17:44:41.729Z,48.80
2017-05-20T17:47:09.980Z,49.20
2017-05-20T17:49:38.258Z,51.30
2017-05-20T17:52:06.518Z,49.50
2017-05-20T17:54:34.788Z,49.80
2017-05-20T17:57:03.070Z,49.50
2017-05-20T17:59:31.343Z,50.30
2017-05-20T18:01:59.585Z,51.30
2017-05-20T18:04:27.862Z,50.70
2017-05-20T18:06:56.112Z,52.30
2017-05-20T18:09:24.376Z,51.00
2017-05-20T18:11:52.657Z,53.50
2017-05-20T18:14:20.903Z,52.40
2017-05-20T18:16:49.176Z,52.80
2017-05-20T18:19:17.417Z,52.20
2017-05-20T18:21:45.681Z,53.00
2017-05-20T18:24:13.942Z,50.40
2017-05-20T18:26:42.184Z,49.60
2017-05-20T18:29:10.449Z,51.50
2017-05-20T18:31:38.724Z,49.40
2017-05-20T18:34:06.989Z,50.90
2017-05-20T18:36:35.248Z,50.40
2017-05-20T18:39:03.514Z,49.30
2017-05-20T18:41:31.770Z,49.80
2017-05-20T18:44:00.043Z,50.20
2017-05-20T18:46:28.291Z,49.70
2017-05-20T18:48:56.527Z,49.60
2017-05-20T18:51:25.232Z,49.30
2017-05-20T18:53:53.498Z,50.10
2017-05-20T18:56:21.768Z,50.00
2017-05-20T18:58:50.019Z,51.10
2017-05-20T19:01:18.282Z,50.30
2017-05-20T19:03:46.529Z,51.00
2017-05-20T19:06:14.784Z,50.60
2017-05-20T19:08:43.073Z,51.10
2017-05-20T19:11:11.329Z,51.20
2017-05-20T19:13:39.590Z,51.70
2017-05-20T19:16:07.832Z,52.70
2017-05-20T19:18:36.083Z,54.80
2017-05-20T19:21:04.353Z,53.90
2017-05-20T19:23:32.601Z,54.10
2017-05-20T19:26:00.852Z,54.40
2017-05-20T19:28:29.122Z,54.00
2017-05-20T19:30:57.372Z,56.40
2017-05-20T19:33:25.665Z,56.30
2017-05-20T19:35:53.901Z,56.00
2017-05-20T19:38:22.173Z,56.50
2017-05-20T19:40:50.412Z,57.10
2017-05-20T19:43:18.662Z,57.80
2017-05-20T19:45:46.944Z,58.20
2017-05-20T19:48:15.196Z,58.90
2017-05-20T19:50:43.449Z,60.50
2017-05-20T19:53:11.719Z,59.50
2017-05-20T19:55:39.983Z,60.30
2017-05-20T19:58:08.242Z,60.80
2017-05-20T20:00:36.509Z,61.20
2017-05-20T20:03:04.757Z,61.30
2017-05-20T20:05:33.000Z,61.30
2017-05-20T20:08:01.260Z,62.20
2017-05-20T20:10:29.530Z,64.10
2017-05-20T20:12:57.777Z,64.30
2017-05-20T20:15:26.019Z,65.30
2017-05-20T20:17:54.278Z,63.90
2017-05-20T20:20:22.521Z,63.20
2017-05-20T20:22:50.778Z,63.90
2017-05-20T20:25:19.042Z,64.50
2017-05-20T20:27:47.317Z,66.20
2017-05-20T20:30:15.569Z,65.30
2017-05-20T20:32:43.845Z,65.00
2017-05-20T20:35:12.088Z,67.20
2017-05-20T20:37:40.353Z,67.20
2017-05-20T20:40:08.625Z,67.20
2017-05-20T20:42:36.865Z,67.30
2017-05-20T20:45:05.113Z,67.60
2017-05-20T20:47:33.361Z,68.10
2017-05-20T20:50:01.602Z,68.80
2017-05-20T20:52:29.906Z,69.00
2017-05-20T20:54:58.153Z,69.40
2017-05-20T20:57:26.409Z,69.10
2017-05-20T20:59:54.677Z,70.80
2017-05-20T21:02:22.949Z,68.90
2017-05-20T21:04:51.227Z,69.10
2017-05-20T21:07:19.466Z,70.20
2017-05-20T21:09:47.704Z,69.90
2017-05-20T21:12:15.965Z,71.40
2017-05-20T21:14:44.210Z,72.30
2017-05-20T21:17:12.483Z,71.40
2017-05-20T21:19:40.741Z,71.40
2017-05-20T21:22:08.985Z,71.30
2017-05-20T21:24:37.245Z,72.40
2017-05-20T21:27:05.513Z,72.70
2017-05-20T21:29:33.780Z,73.30
2017-05-20T21:32:02.042Z,73.40
2017-05-20T21:34:30.317Z,74.00
2017-05-20T21:36:58.558Z,73.40
2017-05-20T21:39:26.822Z,72.20
2017-05-20T21:41:55.081Z,73.80
2017-05-20T21:44:23.330Z,73.80
2017-05-20T21:46:51.632Z,74.50
2017-05-20T21:49:19.880Z,74.80
2017-05-20T21:51:48.157Z,75.30
2017-05-20T21:54:16.398Z,74.70
2017-05-20T21:56:44.661Z,74.70
2017-05-20T21:59:12.910Z,74.90
2017-05-20T22:01:41.152Z,74.40
2017-05-20T22:04:09.407Z,75.50
2017-05-20T22:06:37.649Z,74.50
2017-05-20T22:09:05.910Z,75.70
2017-05-20T22:11:34.164Z,76.40
2017-05-20T22:14:02.405Z,75.90
2017-05-20T22:16:30.658Z,76.50
2017-05-20T22:18:58.895Z,75.60
2017-05-20T22:21:27.150Z,76.60
2017-05-20T22:23:55.393Z,76.50
2017-05-20T22:26:23.645Z,75.80
2017-05-20T22:28:51.954Z,76.00
2017-05-20T22:31:20.682Z,76.40
2017-05-20T22:33:48.942Z,77.00
2017-05-20T22:36:17.175Z,76.50
2017-05-20T22:38:45.451Z,76.70
2017-05-20T22:41:13.689Z,77.40
2017-05-20T22:43:41.933Z,77.20
2017-05-20T22:46:10.192Z,77.70
2017-05-20T22:48:38.428Z,77.80
2017-05-20T22:51:06.697Z,77.80
2017-05-20T22:53:34.937Z,78.20
2017-05-20T22:56:03.178Z,77.10
2017-05-20T22:58:31.455Z,76.90
2017-05-20T23:00:59.694Z,77.40
2017-05-20T23:03:27.953Z,77.40
2017-05-20T23:05:56.189Z,78.20
2017-05-20T23:08:24.457Z,77.80
2017-05-20T23:10:52.704Z,78.70
2017-05-20T23:13:20.965Z,77.50
2017-05-20T23:15:49.221Z,77.70
2017-05-20T23:18:17.493Z,76.70
2017-05-20T23:20:45.760Z,77.60
2017-05-20T23:23:14.017Z,77.60
2017-05-20T23:25:42.279Z,77.40
2017-05-20T23:28:10.542Z,77.50
2017-05-20T23:30:38.813Z,78.60
2017-05-20T23:33:07.066Z,79.20
2017-05-20T23:35:35.309Z,79.20
2017-05-20T23:38:03.573Z,79.50
2017-05-20T23:40:31.828Z,78.10
2017-05-20T23:43:00.089Z,77.90
2017-05-20T23:45:28.342Z,78.00
2017-05-20T23:47:56.581Z,78.80
2017-05-20T23:50:24.836Z,79.00
2017-05-20T23:52:53.082Z,79.50
2017-05-20T23:55:21.370Z,79.40
2017-05-20T23:57:49.609Z,78.70
